Time;durP1;ratioP1;P1;durP2;ratioP2;P2;SDS_P1;SDS_P2;PMS_P1;PMS_P2;Temp;Humidity;BMP_temperature;BMP_pressure;BME280_temperature;BME280_humidity;BME280_pressure;Samples;Min_cycle;Max_cycle;Signal;HPM_P1;HPM_P2
2022/04/02 00:01:24;;;;;;;5.07;2.40;;;;;;;-145.18;100.00;46906.53;4994142;28;20138;-68
2022/04/02 00:03:50;;;;;;;6.35;2.40;;;;;;;-145.18;100.00;46869.41;4994411;28;20546;-68
2022/04/02 00:06:16;;;;;;;5.55;1.88;;;;;;;-145.18;100.00;46887.00;4994074;28;20045;-67
2022/04/02 00:08:41;;;;;;;3.93;2.10;;;;;;;-145.18;100.00;46865.50;4994546;28;20392;-67
2022/04/02 00:11:07;;;;;;;4.87;2.10;;;;;;;-145.18;100.00;46875.28;4993793;28;20186;-68
2022/04/02 00:13:33;;;;;;;3.83;2.07;;;;;;;-145.18;100.00;46861.59;4994338;28;20062;-67
2022/04/02 00:15:59;;;;;;;4.45;1.90;;;;;;;-145.18;100.00;46863.53;4994072;28;20117;-67
2022/04/02 00:18:25;;;;;;;7.03;2.10;;;;;;;-145.18;100.00;46875.28;4976907;28;20523;-67
2022/04/02 00:20:50;;;;;;;5.13;2.37;;;;;;;-145.18;100.00;46888.94;4994471;28;20030;-68
2022/04/02 00:26:01;;;;;;;3.97;2.03;;;;;;;-145.18;100.00;46887.00;4994277;28;20394;-67
2022/04/02 00:28:27;;;;;;;7.05;1.55;;;;;;;-145.18;100.00;46894.81;4994193;28;20027;-67
2022/04/02 00:30:52;;;;;;;6.23;1.97;;;;;;;-145.18;100.00;46920.19;4993606;28;20479;-67
2022/04/02 00:33:17;;;;;;;5.20;2.30;;;;;;;-145.18;100.00;46928.00;4993830;28;20066;-67
2022/04/02 00:35:43;;;;;;;5.70;2.20;;;;;;;-145.18;100.00;46972.94;4993924;28;20475;-67
2022/04/02 00:38:08;;;;;;;6.13;1.80;;;;;;;-145.18;100.00;46961.22;4976090;28;20755;-67
2022/04/02 00:40:34;;;;;;;3.90;1.67;;;;;;;-145.18;100.00;46957.31;4993820;28;20122;-67
2022/04/02 00:43:00;;;;;;;7.10;2.27;;;;;;;-145.18;100.00;46955.34;4993421;28;20030;-67
2022/04/02 00:45:25;;;;;;;7.30;1.83;;;;;;;-145.18;100.00;46922.16;4993843;28;20034;-67
2022/04/02 00:47:51;;;;;;;4.90;2.30;;;;;;;-145.18;100.00;46914.34;4993086;28;20030;-66
2022/04/02 00:50:16;;;;;;;4.23;2.13;;;;;;;-145.18;100.00;46963.19;4993597;28;20030;-67
2022/04/02 00:52:43;;;;;;;8.30;2.00;;;;;;;-145.18;100.00;46929.97;4993497;28;20030;-67
2022/04/02 00:55:09;;;;;;;5.68;1.92;;;;;;;-145.18;100.00;46924.09;4993370;28;20659;-67
2022/04/02 00:57:34;;;;;;;4.43;2.03;;;;;;;-145.18;100.00;46902.63;4993277;28;20057;-67
2022/04/02 01:00:00;;;;;;;6.93;2.50;;;;;;;-145.18;100.00;46920.19;4975843;28;20057;-67
2022/04/02 01:02:26;;;;;;;9.02;2.60;;;;;;;-145.18;100.00;46945.59;4993087;28;20031;-67
2022/04/02 01:04:54;;;;;;;5.67;1.77;;;;;;;-145.18;100.00;46955.34;4992893;28;20058;-67
2022/04/02 01:07:20;;;;;;;4.32;1.77;;;;;;;-145.18;100.00;47008.09;4975600;28;20085;-67
2022/04/02 01:09:46;;;;;;;3.67;1.90;;;;;;;-145.18;100.00;46988.56;4993243;28;20041;-67
2022/04/02 01:12:11;;;;;;;2.77;1.60;;;;;;;-145.18;100.00;46963.19;4992907;28;20030;-67
2022/04/02 01:14:37;;;;;;;4.57;2.10;;;;;;;-145.18;100.00;47039.34;4993227;28;20057;-67
2022/04/02 01:17:04;;;;;;;6.90;2.33;;;;;;;-145.18;100.00;46953.41;4992702;28;20031;-67
2022/04/02 01:19:29;;;;;;;7.32;2.85;;;;;;;-145.18;100.00;46978.81;4993001;28;20487;-67
2022/04/02 01:21:55;;;;;;;4.63;2.00;;;;;;;-145.18;100.00;46941.69;4992640;28;20041;-67
2022/04/02 01:24:20;;;;;;;4.70;1.87;;;;;;;-145.18;100.00;46931.91;4975765;28;20037;-67
2022/04/02 01:26:46;;;;;;;8.03;2.10;;;;;;;-145.18;100.00;46912.38;4992749;28;20470;-67
2022/04/02 01:29:11;;;;;;;3.80;1.90;;;;;;;-145.18;100.00;46910.44;4992883;28;20765;-67
2022/04/02 01:31:37;;;;;;;4.50;2.10;;;;;;;-145.18;100.00;46922.16;4992508;28;20292;-67
2022/04/02 01:34:02;;;;;;;5.57;2.40;;;;;;;-145.18;100.00;46908.47;4975342;28;20053;-67
2022/04/02 01:36:28;;;;;;;7.80;2.50;;;;;;;-145.18;100.00;46902.63;4992575;28;20030;-69
2022/04/02 01:38:53;;;;;;;4.70;2.23;;;;;;;-145.18;100.00;46904.56;4992388;28;20415;-67
2022/04/02 01:41:19;;;;;;;6.43;2.30;;;;;;;-145.18;100.00;46949.50;4992532;28;20031;-67
2022/04/02 01:43:46;;;;;;;6.60;2.38;;;;;;;-145.18;100.00;46910.44;4992398;28;20117;-67
2022/04/02 01:46:12;;;;;;;4.78;2.08;;;;;;;-145.18;100.00;46910.44;4992614;28;20031;-67
2022/04/02 01:48:38;;;;;;;7.65;2.50;;;;;;;-145.18;100.00;46926.06;4992283;28;20110;-67
2022/04/02 01:51:04;;;;;;;5.38;1.90;;;;;;;-145.18;100.00;46888.94;4992466;28;20494;-67
2022/04/02 01:53:30;;;;;;;4.47;2.03;;;;;;;-145.18;100.00;46928.00;4992269;28;20030;-67
2022/04/02 01:55:56;;;;;;;5.82;1.63;;;;;;;-145.18;100.00;46912.38;4992278;28;20042;-67
2022/04/02 01:58:21;;;;;;;7.90;2.40;;;;;;;-145.18;100.00;46918.25;4992260;28;20395;-67
2022/04/02 02:03:22;;;;;;;4.60;2.05;;;;;;;-145.18;100.00;46908.47;5256228;23;20096;-67
2022/04/02 02:05:47;;;;;;;4.30;2.13;;;;;;;-145.18;100.00;46959.25;4991779;28;20049;-67
2022/04/02 02:08:12;;;;;;;2.93;2.03;;;;;;;-145.18;100.00;46912.38;4991634;28;20566;-67
2022/04/02 02:10:38;;;;;;;5.50;1.90;;;;;;;-145.18;100.00;46935.81;4992090;28;20088;-68
2022/04/02 02:13:04;;;;;;;4.43;1.87;;;;;;;-145.18;100.00;46924.09;4991456;28;20392;-68
2022/04/02 02:15:30;;;;;;;4.32;2.10;;;;;;;-145.18;100.00;46904.56;4992211;28;20033;-67
2022/04/02 02:17:55;;;;;;;5.33;2.37;;;;;;;-145.18;100.00;46920.19;4991622;28;20494;-67
2022/04/02 02:20:21;;;;;;;6.20;2.70;;;;;;;-145.18;100.00;46972.94;4992491;28;20126;-67
2022/04/02 02:22:49;;;;;;;3.88;1.90;;;;;;;-145.18;100.00;46918.25;4991812;28;20049;-67
2022/04/02 02:25:16;;;;;;;5.53;2.25;;;;;;;-145.18;100.00;46920.19;4991576;28;20475;-68
2022/04/02 02:27:43;;;;;;;4.30;1.80;;;;;;;-145.18;100.00;46916.28;4991731;28;20031;-67
2022/04/02 02:30:11;;;;;;;5.22;2.05;;;;;;;-145.18;100.00;46906.53;4974407;28;20045;-67
2022/04/02 02:32:37;;;;;;;4.90;1.75;;;;;;;-145.18;100.00;46933.88;4991574;28;20097;-67
2022/04/02 02:37:48;;;;;;;4.07;2.10;;;;;;;-145.18;100.00;46945.59;4991767;28;20101;-68
2022/04/02 02:40:14;;;;;;;5.87;2.43;;;;;;;-145.18;100.00;46924.09;4991688;28;20037;-67
2022/04/02 02:42:40;;;;;;;6.07;2.10;;;;;;;-145.18;100.00;46908.47;4991467;28;20117;-67
2022/04/02 02:45:06;;;;;;;7.10;2.42;;;;;;;-145.18;100.00;46894.81;4991411;28;20030;-67
2022/04/02 02:47:31;;;;;;;5.33;2.10;;;;;;;-145.18;100.00;46888.94;4991448;28;20034;-68
2022/04/02 02:49:57;;;;;;;6.13;2.13;;;;;;;-145.18;100.00;46877.22;4973860;28;20028;-67
2022/04/02 02:52:22;;;;;;;6.20;2.10;;;;;;;-145.18;100.00;46857.69;4991366;28;20042;-67
2022/04/02 02:54:47;;;;;;;7.07;2.03;;;;;;;-145.18;100.00;46863.53;4991676;28;20117;-67
2022/04/02 02:57:13;;;;;;;5.83;2.23;;;;;;;-145.18;100.00;46844.00;4990883;28;20129;-67
2022/04/02 02:59:38;;;;;;;3.23;2.10;;;;;;;-145.18;100.00;46853.78;4991171;28;20070;-67
2022/04/02 03:02:04;;;;;;;5.03;2.10;;;;;;;-145.18;100.00;46847.91;4990682;28;20066;-67
2022/04/02 03:04:30;;;;;;;4.57;1.97;;;;;;;-145.18;100.00;46842.06;4991699;28;20042;-67
2022/04/02 03:06:56;;;;;;;7.13;2.55;;;;;;;-145.18;100.00;46844.00;4990836;28;20061;-67
2022/04/02 03:09:22;;;;;;;3.60;1.93;;;;;;;-145.18;100.00;46840.09;4991107;28;20479;-67
2022/04/02 03:11:47;;;;;;;5.70;2.23;;;;;;;-145.18;100.00;46826.44;4991032;28;20097;-67
2022/04/02 03:14:12;;;;;;;4.13;2.37;;;;;;;-145.18;100.00;46812.75;4990794;28;20482;-68
2022/04/02 03:16:38;;;;;;;7.47;2.23;;;;;;;-145.18;100.00;46797.13;4991458;28;20380;-68
2022/04/02 03:19:06;;;;;;;8.63;2.27;;;;;;;-145.18;100.00;46797.13;4973201;28;20093;-68
2022/04/02 03:21:31;;;;;;;6.50;2.22;;;;;;;-145.18;100.00;46799.09;4991125;28;20111;-68
2022/04/02 03:23:57;;;;;;;6.20;2.40;;;;;;;-145.18;100.00;46806.91;4990521;28;20501;-67
2022/04/02 03:26:25;;;;;;;5.00;2.47;;;;;;;-145.18;100.00;46765.88;4991497;28;20042;-67
2022/04/02 03:28:50;;;;;;;6.57;2.40;;;;;;;-145.18;100.00;46783.47;4990766;28;20038;-67
2022/04/02 03:31:15;;;;;;;5.67;2.90;;;;;;;-145.18;100.00;46781.50;4990833;28;20053;-67
2022/04/02 03:33:41;;;;;;;6.90;1.93;;;;;;;-145.18;100.00;46787.38;4990619;28;20033;-67
2022/04/02 03:36:06;;;;;;;7.53;1.83;;;;;;;-145.18;100.00;46804.94;4990954;28;20089;-67
2022/04/02 03:38:31;;;;;;;4.47;1.97;;;;;;;-145.18;100.00;46830.34;4990653;28;20027;-67
2022/04/02 03:40:57;;;;;;;5.47;1.57;;;;;;;-145.18;100.00;46799.09;4990959;28;20483;-67
2022/04/02 03:43:22;;;;;;;4.30;2.40;;;;;;;-145.18;100.00;46793.22;4990692;28;20026;-67
2022/04/02 03:45:48;;;;;;;6.13;2.23;;;;;;;-145.18;100.00;46804.94;4990913;28;20443;-67
2022/04/02 03:48:13;;;;;;;5.00;2.03;;;;;;;-145.18;100.00;46797.13;4990290;28;20069;-67
2022/04/02 03:50:39;;;;;;;6.90;2.40;;;;;;;-145.18;100.00;46787.38;4990915;28;20060;-67
2022/04/02 03:53:05;;;;;;;5.67;2.23;;;;;;;-145.18;100.00;46801.03;4990381;28;20045;-67
2022/04/02 03:55:30;;;;;;;4.70;2.23;;;;;;;-145.18;100.00;46787.38;4990931;28;20044;-67
2022/04/02 03:57:56;;;;;;;7.20;2.23;;;;;;;-145.18;100.00;46777.59;4990385;28;20030;-67
2022/04/02 04:00:21;;;;;;;8.53;2.50;;;;;;;-145.18;100.00;46775.66;4991015;28;20371;-67
2022/04/02 04:02:47;;;;;;;4.83;2.00;;;;;;;-145.18;100.00;46785.41;4990180;28;20073;-67
2022/04/02 04:05:13;;;;;;;6.27;2.20;;;;;;;-145.18;100.00;46787.38;4974650;28;20077;-67
2022/04/02 04:07:38;;;;;;;5.33;2.17;;;;;;;-145.18;100.00;46812.75;4953582;28;20574;-67
2022/04/02 04:10:05;;;;;;;9.23;2.77;;;;;;;-145.18;100.00;46799.09;4953985;28;20110;-67
2022/04/02 04:12:30;;;;;;;6.22;2.13;;;;;;;-145.18;100.00;46801.03;4971095;28;20503;-67
2022/04/02 04:14:56;;;;;;;4.27;2.03;;;;;;;-145.18;100.00;46789.31;4971046;28;20047;-68
2022/04/02 04:17:23;;;;;;;6.03;2.13;;;;;;;-145.18;100.00;46814.72;4971104;28;20479;-67
2022/04/02 04:19:49;;;;;;;10.02;2.28;;;;;;;-145.18;100.00;46828.38;4971354;28;20434;-67
2022/04/02 04:22:14;;;;;;;6.90;2.27;;;;;;;-145.18;100.00;46844.00;4953263;28;20046;-67
2022/04/02 04:24:39;;;;;;;4.77;2.30;;;;;;;-145.18;100.00;46840.09;4974082;28;20023;-67
2022/04/02 04:27:05;;;;;;;5.67;2.57;;;;;;;-145.18;100.00;46855.72;4974603;28;20502;-67
2022/04/02 04:29:30;;;;;;;5.70;2.17;;;;;;;-145.18;100.00;46840.09;4974511;28;20038;-67
2022/04/02 04:31:55;;;;;;;4.47;2.07;;;;;;;-145.18;100.00;46840.09;4974471;28;20104;-68
2022/04/02 04:34:22;;;;;;;5.47;2.20;;;;;;;-145.18;100.00;46840.09;4957136;28;20031;-67
2022/04/02 04:36:47;;;;;;;4.43;2.20;;;;;;;-145.18;100.00;46832.28;4957451;28;20065;-67
2022/04/02 04:39:13;;;;;;;6.43;2.37;;;;;;;-145.18;100.00;46836.19;4974034;28;20125;-67
2022/04/02 04:41:38;;;;;;;5.47;2.40;;;;;;;-145.18;100.00;46838.16;4974578;28;20038;-67
2022/04/02 04:44:04;;;;;;;3.83;2.23;;;;;;;-145.18;100.00;46832.28;4974094;28;20718;-67
2022/04/02 04:46:29;;;;;;;6.53;2.63;;;;;;;-145.18;100.00;46849.88;4974254;28;20038;-67
2022/04/02 04:48:55;;;;;;;3.27;2.07;;;;;;;-145.18;100.00;46838.16;4969879;28;20035;-67
2022/04/02 04:51:23;;;;;;;4.93;2.03;;;;;;;-145.18;100.00;46844.00;4964167;28;20050;-67
2022/04/02 04:53:51;;;;;;;3.97;2.28;;;;;;;-145.18;100.00;46828.38;4969749;28;20046;-67
2022/04/02 04:56:17;;;;;;;5.13;2.30;;;;;;;-145.18;100.00;46824.47;4973624;28;20031;-67
2022/04/02 04:58:42;;;;;;;8.33;2.30;;;;;;;-145.18;100.00;46842.06;4956751;28;20050;-68
2022/04/02 05:01:12;;;;;;;7.57;2.60;;;;;;;-145.18;100.00;46836.19;4954533;29;20504;-67
2022/04/02 05:03:39;;;;;;;4.38;2.13;;;;;;;-145.18;100.00;46826.44;4954239;28;20054;-68
2022/04/02 05:06:09;;;;;;;4.18;2.03;;;;;;;-145.18;100.00;46793.22;4959148;28;20039;-68
2022/04/02 05:08:34;;;;;;;6.80;2.15;;;;;;;-145.18;100.00;46806.91;4970941;28;20022;-67
2022/04/02 05:11:00;;;;;;;5.97;2.37;;;;;;;-145.18;100.00;46804.94;4973711;28;20035;-68
2022/04/02 05:13:26;;;;;;;5.47;2.15;;;;;;;-145.18;100.00;46787.38;4973679;28;20086;-67
2022/04/02 05:15:51;;;;;;;4.17;2.30;;;;;;;-145.18;100.00;46808.84;4956637;28;20439;-67
2022/04/02 05:18:17;;;;;;;3.93;2.00;;;;;;;-145.18;100.00;46793.22;4973652;28;20114;-67
2022/04/02 05:20:42;;;;;;;7.33;2.50;;;;;;;-145.18;100.00;46777.59;4973905;28;20507;-67
2022/04/02 05:23:08;;;;;;;4.73;2.00;;;;;;;-145.18;100.00;46754.16;4972937;28;20122;-67
2022/04/02 05:25:35;;;;;;;7.82;2.28;;;;;;;-145.18;100.00;46769.78;4973995;28;20035;-67
2022/04/02 05:28:04;;;;;;;4.70;2.40;;;;;;;-145.18;100.00;46771.75;4973129;28;20046;-67
2022/04/02 05:30:31;;;;;;;5.40;2.20;;;;;;;-145.18;100.00;46756.09;4973664;28;20027;-67
2022/04/02 05:32:56;;;;;;;4.88;2.22;;;;;;;-145.18;100.00;46734.63;4972840;28;20122;-67
2022/04/02 05:35:25;;;;;;;6.00;2.33;;;;;;;-145.18;100.00;46761.97;4973829;28;20113;-67
2022/04/02 05:37:50;;;;;;;4.72;2.50;;;;;;;-145.18;100.00;46754.16;4967641;28;20031;-68
2022/04/02 05:40:16;;;;;;;6.13;2.50;;;;;;;-145.18;100.00;46754.16;4963525;28;20061;-67
2022/04/02 05:42:41;;;;;;;10.03;3.10;;;;;;;-145.18;100.00;46761.97;4961227;28;20035;-67
2022/04/02 05:45:08;;;;;;;7.27;2.57;;;;;;;-145.18;100.00;46761.97;4967403;28;20070;-68
2022/04/02 05:47:50;;;;;;;3.83;2.15;;;;;;;-145.18;100.00;46746.34;4952938;28;20035;-67
2022/04/02 05:50:17;;;;;;;7.43;2.78;;;;;;;-145.18;100.00;46765.88;4970611;28;20049;-67
2022/04/02 05:52:43;;;;;;;5.35;2.45;;;;;;;-145.18;100.00;46765.88;4950226;28;20515;-67
2022/04/02 05:55:11;;;;;;;3.90;2.20;;;;;;;-145.18;100.00;46797.13;4971196;28;20054;-68
2022/04/02 05:57:42;;;;;;;6.88;2.65;;;;;;;-145.18;100.00;46844.00;4971631;28;20035;-67
2022/04/02 06:00:10;;;;;;;5.95;2.20;;;;;;;-145.18;100.00;46857.69;4971660;28;20041;-67
2022/04/02 06:02:37;;;;;;;7.15;1.98;;;;;;;-145.18;100.00;46847.91;4954647;28;20058;-67
2022/04/02 06:05:03;;;;;;;8.18;2.67;;;;;;;-145.18;100.00;46853.78;4971659;28;20049;-67
2022/04/02 06:07:29;;;;;;;8.55;2.33;;;;;;;-145.18;100.00;46826.44;4972635;28;20037;-67
2022/04/02 06:09:54;;;;;;;5.50;2.50;;;;;;;-145.18;100.00;46855.72;4972427;28;20026;-67
2022/04/02 06:12:20;;;;;;;4.97;2.57;;;;;;;-145.18;100.00;46838.16;4972562;28;20057;-67
2022/04/02 06:14:45;;;;;;;6.17;2.80;;;;;;;-145.18;100.00;46845.97;4972139;28;20062;-67
2022/04/02 06:17:11;;;;;;;4.13;2.27;;;;;;;-145.18;100.00;46836.19;4972447;28;20034;-68
2022/04/02 06:19:36;;;;;;;5.57;2.13;;;;;;;-145.18;100.00;46820.56;4958578;28;20043;-67
2022/04/02 06:22:06;;;;;;;6.37;2.70;;;;;;;-145.18;100.00;46844.00;4952939;29;20043;-67
2022/04/02 06:24:32;;;;;;;5.10;2.65;;;;;;;-145.18;100.00;46832.28;4935736;29;20448;-67
2022/04/02 06:26:58;;;;;;;9.38;2.75;;;;;;;-145.18;100.00;46871.38;4952769;29;20115;-67
2022/04/02 06:29:23;;;;;;;4.87;2.43;;;;;;;-145.18;100.00;46844.00;4952801;29;20058;-67
2022/04/02 06:31:49;;;;;;;10.27;3.05;;;;;;;-145.18;100.00;46877.22;4953201;29;20130;-67
2022/04/02 06:34:15;;;;;;;5.07;2.90;;;;;;;-145.18;100.00;46851.81;4951825;29;20114;-67
2022/04/02 06:36:40;;;;;;;5.33;2.60;;;;;;;-145.18;100.00;46824.47;4952841;29;20115;-67
2022/04/02 06:39:06;;;;;;;6.07;2.23;;;;;;;-145.18;100.00;46847.91;4952685;29;20043;-67
2022/04/02 06:41:31;;;;;;;6.67;2.83;;;;;;;-145.18;100.00;46855.72;4952965;29;20035;-67
2022/04/02 06:43:57;;;;;;;5.73;2.40;;;;;;;-145.18;100.00;46861.59;4952437;29;20086;-67
2022/04/02 06:46:22;;;;;;;7.37;2.50;;;;;;;-145.18;100.00;46873.31;4952511;28;20462;-68
2022/04/02 06:48:47;;;;;;;10.60;3.20;;;;;;;-145.18;100.00;46865.50;4952649;29;20043;-67
2022/04/02 06:51:13;;;;;;;10.07;3.43;;;;;;;-145.18;100.00;46845.97;4952538;29;20634;-67
2022/04/02 06:53:39;;;;;;;7.53;2.80;;;;;;;-145.18;100.00;46834.25;4952538;29;20042;-67
2022/04/02 06:56:04;;;;;;;4.93;3.03;;;;;;;-145.18;100.00;46847.91;4952568;29;20066;-67
2022/04/02 06:58:38;;;;;;;7.47;2.63;;;;;;;-145.18;100.00;46828.38;4952274;29;20511;-67
2022/04/02 07:01:04;;;;;;;7.53;3.10;;;;;;;-145.18;100.00;46844.00;4935132;29;20365;-67
2022/04/02 07:03:29;;;;;;;9.60;3.10;;;;;;;-145.18;100.00;46836.19;4951783;29;20054;-67
2022/04/02 07:05:55;;;;;;;9.63;3.00;;;;;;;-145.18;100.00;46828.38;4952147;29;20050;-67
2022/04/02 07:08:20;;;;;;;10.90;4.00;;;;;;;-145.18;100.00;46828.38;4935004;29;20031;-68
2022/04/02 07:10:46;;;;;;;6.83;2.93;;;;;;;-145.18;100.00;46838.16;4952132;29;20070;-67
2022/04/02 07:13:11;;;;;;;6.00;2.80;;;;;;;-145.18;100.00;46816.66;4951747;29;20437;-68
2022/04/02 07:15:38;;;;;;;7.07;2.87;;;;;;;-145.18;100.00;46844.00;4952557;29;20047;-67
2022/04/02 07:18:10;;;;;;;7.68;3.17;;;;;;;-145.18;100.00;46824.47;4951931;29;20084;-67
2022/04/02 07:20:36;;;;;;;8.45;3.22;;;;;;;-145.18;100.00;46849.88;4952117;29;20031;-67
2022/04/02 07:23:09;;;;;;;6.05;2.60;;;;;;;-145.18;100.00;46814.72;4951560;29;20059;-68
2022/04/02 07:25:38;;;;;;;6.57;2.72;;;;;;;-145.18;100.00;46873.31;4952486;29;20053;-68
2022/04/02 07:28:04;;;;;;;7.40;2.80;;;;;;;-145.18;100.00;46888.94;4951817;29;20035;-68
2022/04/02 07:30:32;;;;;;;6.07;2.53;;;;;;;-145.18;100.00;46867.44;4957265;28;20050;-68
2022/04/02 07:32:57;;;;;;;7.05;2.85;;;;;;;-145.18;100.00;46883.09;4951562;29;20039;-67
2022/04/02 07:35:23;;;;;;;9.27;3.00;;;;;;;-145.18;100.00;46885.03;4952352;29;20132;-67
2022/04/02 07:38:12;;;;;;;9.33;3.47;;;;;;;-145.18;100.00;46888.94;4952095;29;20027;-68
2022/04/02 07:40:45;;;;;;;12.13;3.40;;;;;;;-145.18;100.00;46859.63;4935614;29;20365;-67
2022/04/02 07:43:26;;;;;;;6.45;2.85;;;;;;;-145.18;100.00;46863.53;4951731;29;20039;-67
2022/04/02 07:46:06;;;;;;;9.48;3.03;;;;;;;-145.18;100.00;46844.00;4952128;29;20035;-68
2022/04/02 07:48:36;;;;;;;6.03;2.47;;;;;;;-145.18;100.00;46845.97;4951815;29;20090;-67
2022/04/02 07:51:09;;;;;;;6.55;2.95;;;;;;;-145.18;100.00;46871.38;4969105;28;20564;-68
2022/04/02 07:53:41;;;;;;;8.65;3.10;;;;;;;-145.18;100.00;46863.53;4967897;28;20133;-68
2022/04/02 07:56:12;;;;;;;7.07;2.83;;;;;;;-145.18;100.00;46861.59;4970817;28;20483;-68
2022/04/02 07:58:41;;;;;;;8.98;2.80;;;;;;;-145.18;100.00;46904.56;4956251;28;20100;-68
2022/04/02 08:01:10;;;;;;;5.97;2.72;;;;;;;-145.18;100.00;46834.25;4950451;28;20399;-68
2022/04/02 08:03:36;;;;;;;5.65;2.50;;;;;;;-145.18;100.00;46910.44;4966239;28;20047;-68
2022/04/02 08:06:02;;;;;;;11.20;3.80;;;;;;;-145.18;100.00;46883.09;4974569;28;20163;-68
2022/04/02 08:08:28;;;;;;;5.53;2.63;;;;;;;-145.18;100.00;46982.72;4974014;28;20734;-68
2022/04/02 08:10:54;;;;;;;5.83;2.70;;;;;;;-145.18;100.00;47056.94;4974441;28;20375;-68
2022/04/02 08:13:20;;;;;;;5.00;2.47;;;;;;;-145.18;100.00;46945.59;4974688;28;20050;-68
2022/04/02 08:15:46;;;;;;;8.60;3.00;;;;;;;-145.18;100.00;46888.94;4974861;28;20067;-68
2022/04/02 08:18:17;;;;;;;8.57;3.10;;;;;;;-145.18;100.00;47047.19;4974386;28;20031;-68
2022/04/02 08:20:43;;;;;;;10.27;3.37;;;;;;;-145.18;100.00;47439.84;4974884;28;20300;-68
2022/04/02 08:23:09;;;;;;;6.07;3.10;;;;;;;-145.18;100.00;47189.78;4974290;28;20328;-68
2022/04/02 08:25:38;;;;;;;6.57;3.00;;;;;;;-145.18;100.00;47420.31;4974550;28;20042;-68
2022/04/02 08:28:12;;;;;;;7.83;3.57;;;;;;;-145.18;100.00;47422.28;4974211;28;20170;-68
2022/04/02 08:30:44;;;;;;;6.87;3.40;;;;;;;-145.18;100.00;47451.56;4974711;28;20371;-68
2022/04/02 08:33:37;;;;;;;7.60;3.37;;;;;;;-145.18;100.00;47506.28;4973941;28;20256;-69
2022/04/02 08:36:03;;;;;;;7.80;3.93;;;;;;;-145.18;100.00;47561.00;4965045;28;20275;-69
2022/04/02 08:38:53;;;;;;;5.53;3.50;;;;;;;-145.18;100.00;47564.91;4953713;28;20265;-68
2022/04/02 08:42:15;;;;;;;4.80;2.50;;;;;;;-145.18;100.00;47549.25;4969540;28;20062;-68
2022/04/02 08:45:04;;;;;;;6.10;2.83;;;;;;;-145.18;100.00;47506.28;4930151;28;20273;-68
2022/04/02 08:47:58;;;;;;;11.97;3.97;;;;;;;-145.18;100.00;47514.09;4973221;28;20344;-68
2022/04/02 08:50:29;;;;;;;7.13;3.27;;;;;;;-145.18;100.00;47525.81;4960271;28;20269;-68
2022/04/02 08:52:59;;;;;;;7.13;2.87;;;;;;;-145.18;100.00;47537.53;4973128;28;20356;-68
2022/04/02 08:55:34;;;;;;;7.03;4.40;;;;;;;-145.18;100.00;47492.59;4973447;28;20253;-69
2022/04/02 08:58:05;;;;;;;10.50;3.13;;;;;;;-145.18;100.00;47500.41;4972966;28;20307;-69
2022/04/02 09:00:38;;;;;;;9.33;2.73;;;;;;;-145.18;100.00;47500.41;4973121;28;20638;-68
2022/04/02 09:03:25;;;;;;;10.03;3.10;;;;;;;-145.18;100.00;47541.44;4972576;28;20280;-68
2022/04/02 09:06:47;;;;;;;13.00;3.13;;;;;;;-145.18;100.00;47551.22;4973104;28;20261;-69
2022/04/02 09:09:13;;;;;;;9.73;2.60;;;;;;;-145.18;100.00;47594.19;4918719;29;20357;-68
2022/04/02 09:11:56;;;;;;;4.50;2.63;;;;;;;-145.18;100.00;47539.50;4913269;29;20294;-69
2022/04/02 09:14:42;;;;;;;9.13;3.13;;;;;;;-145.18;100.00;47519.97;4954154;28;20047;-69
2022/04/02 09:17:33;;;;;;;7.03;3.50;;;;;;;-145.18;100.00;47523.88;4965920;28;20264;-68
2022/04/02 09:20:14;;;;;;;5.43;2.97;;;;;;;-145.18;100.00;47486.75;4963948;28;20284;-69
2022/04/02 09:22:54;;;;;;;8.83;2.70;;;;;;;-145.18;100.00;47465.25;4972395;28;20457;-69
2022/04/02 09:25:43;;;;;;;8.03;3.03;;;;;;;-145.18;100.00;47435.94;4957245;28;20269;-69
2022/04/02 09:28:20;;;;;;;6.27;2.83;;;;;;;-145.18;100.00;47422.28;4957582;28;20268;-69
2022/04/02 09:31:13;;;;;;;5.53;2.70;;;;;;;-145.18;100.00;47449.63;4973213;28;20280;-69
2022/04/02 09:34:00;;;;;;;4.33;2.50;;;;;;;-145.18;100.00;47473.06;4972370;28;20296;-69
2022/04/02 09:36:41;;;;;;;9.70;2.70;;;;;;;-145.18;100.00;47486.75;4973131;28;20344;-68
2022/04/02 09:39:20;;;;;;;6.37;2.23;;;;;;;-145.18;100.00;47482.84;4971788;28;20268;-68
2022/04/02 09:41:57;;;;;;;4.23;1.97;;;;;;;-145.18;100.00;47473.06;4965822;28;20301;-69
2022/04/02 09:44:44;;;;;;;3.43;1.90;;;;;;;-145.18;100.00;47490.66;4970596;28;20773;-69
2022/04/02 09:47:21;;;;;;;7.47;2.23;;;;;;;-145.18;100.00;47512.16;4970500;28;21000;-68
2022/04/02 09:49:57;;;;;;;3.73;2.00;;;;;;;-145.18;100.00;47521.91;4971278;28;20372;-68
2022/04/02 09:52:25;;;;;;;3.23;1.60;;;;;;;-145.18;100.00;47506.28;4961568;28;20693;-68
2022/04/02 09:55:07;;;;;;;5.93;2.57;;;;;;;-145.18;100.00;47486.75;4964462;28;20745;-68
2022/04/02 09:57:35;;;;;;;8.43;2.00;;;;;;;-145.18;100.00;47512.16;4968325;28;20284;-68
2022/04/02 10:00:05;;;;;;;4.57;1.80;;;;;;;-145.18;100.00;47512.16;4961049;28;20352;-68
2022/04/02 10:03:01;;;;;;;3.73;1.97;;;;;;;-145.18;100.00;47514.09;4971848;28;20717;-68
2022/04/02 10:05:42;;;;;;;3.72;1.98;;;;;;;-145.18;100.00;47519.97;4971969;28;20618;-68
2022/04/02 10:08:39;;;;;;;6.60;2.07;;;;;;;-145.18;100.00;47457.44;4971700;28;20546;-68
2022/04/02 10:11:08;;;;;;;5.03;1.85;;;;;;;-145.18;100.00;47490.66;4971401;28;20308;-68
2022/04/02 10:13:35;;;;;;;4.27;2.30;;;;;;;-145.18;100.00;47516.06;4972001;28;20038;-69
2022/04/02 10:16:03;;;;;;;6.07;2.50;;;;;;;-145.18;100.00;47488.69;4971936;28;20319;-68
2022/04/02 10:18:33;;;;;;;4.23;2.17;;;;;;;-145.18;100.00;47496.50;4971896;28;20776;-69
2022/04/02 10:21:05;;;;;;;5.63;2.40;;;;;;;-145.18;100.00;47502.38;4971333;28;20268;-68
2022/04/02 10:23:34;;;;;;;6.97;2.60;;;;;;;-145.18;100.00;47506.28;4971785;28;20331;-68
2022/04/02 10:26:11;;;;;;;4.03;2.10;;;;;;;-145.18;100.00;47480.88;4971747;28;20253;-68
2022/04/02 10:28:52;;;;;;;7.13;2.13;;;;;;;-145.18;100.00;47496.50;4971789;28;20261;-69
2022/04/02 10:31:36;;;;;;;7.63;2.20;;;;;;;-145.18;100.00;47500.41;4965922;28;20324;-68
2022/04/02 10:34:40;;;;;;;7.97;2.50;;;;;;;-145.18;100.00;47492.59;4965322;28;20265;-68
2022/04/02 10:37:12;;;;;;;9.83;2.53;;;;;;;-145.18;100.00;47512.16;4958787;28;20285;-68
2022/04/02 10:39:49;;;;;;;5.60;3.17;;;;;;;-145.18;100.00;47504.31;4971590;28;20276;-68
2022/04/02 10:42:18;;;;;;;7.20;2.77;;;;;;;-145.18;100.00;47435.94;4971476;28;20708;-68
2022/04/02 10:44:50;;;;;;;5.90;2.40;;;;;;;-145.18;100.00;47418.38;4971454;28;20761;-68
2022/04/02 10:47:20;;;;;;;4.27;2.43;;;;;;;-145.18;100.00;47394.91;4971555;28;20265;-68
2022/04/02 10:49:50;;;;;;;7.53;2.07;;;;;;;-145.18;100.00;47434.00;4971151;28;20359;-69
2022/04/02 10:52:15;;;;;;;5.97;2.57;;;;;;;-145.18;100.00;47453.53;4971232;28;20295;-69
2022/04/02 10:54:48;;;;;;;7.30;3.00;;;;;;;-145.18;100.00;47459.41;4971159;28;20277;-69
2022/04/02 10:57:14;;;;;;;5.03;2.30;;;;;;;-145.18;100.00;47476.97;4971296;28;20377;-68
2022/04/02 10:59:44;;;;;;;6.53;2.00;;;;;;;-145.18;100.00;47500.41;4971297;28;20280;-68
2022/04/02 11:02:21;;;;;;;6.50;2.50;;;;;;;-145.18;100.00;47519.97;4971003;28;20357;-68
2022/04/02 11:05:02;;;;;;;6.17;2.87;;;;;;;-145.18;100.00;47510.19;4971240;28;20285;-68
2022/04/02 11:07:30;;;;;;;5.90;3.13;;;;;;;-145.18;100.00;47512.16;4971340;28;20268;-68
2022/04/02 11:09:59;;;;;;;5.77;2.30;;;;;;;-145.18;100.00;47494.56;4970589;28;20295;-69
2022/04/02 11:12:37;;;;;;;8.30;2.30;;;;;;;-145.18;100.00;47519.97;4971419;28;20323;-69
2022/04/02 11:15:17;;;;;;;6.67;2.33;;;;;;;-145.18;100.00;47492.59;4967014;28;20368;-69
2022/04/02 11:17:57;;;;;;;7.47;2.40;;;;;;;-145.18;100.00;47473.06;4959850;28;20277;-68
2022/04/02 11:20:25;;;;;;;9.93;2.47;;;;;;;-145.18;100.00;47486.75;4962038;28;20302;-69
2022/04/02 11:22:50;;;;;;;6.43;2.63;;;;;;;-145.18;100.00;47473.06;4963943;28;20269;-68
2022/04/02 11:25:36;;;;;;;8.33;2.10;;;;;;;-145.18;100.00;47449.63;4967922;28;20261;-68
2022/04/02 11:28:04;;;;;;;6.57;2.03;;;;;;;-145.18;100.00;47441.81;4954665;28;20047;-68